createdAt,value
2023-07-22T00:00:51.046Z,23.10
2023-07-22T00:03:18.053Z,23.20
2023-07-22T00:05:45.317Z,23.20
2023-07-22T00:08:12.288Z,23.20
2023-07-22T00:10:43.596Z,23.10
2023-07-22T00:13:10.804Z,23.10
2023-07-22T00:15:37.660Z,23.10
2023-07-22T00:18:04.652Z,23.10
2023-07-22T00:20:31.505Z,23.00
2023-07-22T00:22:58.844Z,22.90
2023-07-22T00:25:25.710Z,23.00
2023-07-22T00:27:52.654Z,22.90
2023-07-22T00:30:19.619Z,22.90
2023-07-22T00:32:46.685Z,22.90
2023-07-22T00:35:13.914Z,22.90
2023-07-22T00:37:40.834Z,22.80
2023-07-22T00:40:13.237Z,22.80
2023-07-22T00:42:41.004Z,22.80
2023-07-22T00:45:08.754Z,22.70
2023-07-22T00:47:36.416Z,22.70
2023-07-22T00:50:05.330Z,22.80
2023-07-22T00:52:32.438Z,22.70
2023-07-22T00:54:59.594Z,22.70
2023-07-22T00:57:26.876Z,22.70
2023-07-22T00:59:55.099Z,22.70
2023-07-22T01:02:23.220Z,22.70
2023-07-22T01:04:52.039Z,22.70
2023-07-22T01:07:19.229Z,22.70
2023-07-22T01:09:46.247Z,22.80
2023-07-22T01:12:14.891Z,22.80
2023-07-22T01:14:43.118Z,22.70
2023-07-22T01:17:11.936Z,22.70
2023-07-22T01:19:39.067Z,22.60
2023-07-22T01:22:08.622Z,22.40
2023-07-22T01:24:35.983Z,22.50
2023-07-22T01:27:04.624Z,22.60
2023-07-22T01:29:31.775Z,22.70
2023-07-22T01:31:58.591Z,22.80
2023-07-22T01:34:26.207Z,22.70
2023-07-22T01:36:53.250Z,22.70
2023-07-22T01:39:20.345Z,22.60
2023-07-22T01:41:47.592Z,22.70
2023-07-22T01:44:14.647Z,22.80
2023-07-22T01:46:42.393Z,22.70
2023-07-22T01:49:12.339Z,22.50
2023-07-22T01:51:39.647Z,22.50
2023-07-22T01:54:07.042Z,22.50
2023-07-22T01:56:34.282Z,22.40
2023-07-22T01:59:01.163Z,22.40
2023-07-22T02:01:29.324Z,22.50
2023-07-22T02:03:56.940Z,22.50
2023-07-22T02:06:24.357Z,22.60
2023-07-22T02:08:51.606Z,22.60
2023-07-22T02:11:18.889Z,22.60
2023-07-22T02:13:45.759Z,22.50
2023-07-22T02:16:12.836Z,22.60
2023-07-22T02:18:40.254Z,22.70
2023-07-22T02:21:07.088Z,22.80
2023-07-22T02:23:33.931Z,22.90
2023-07-22T02:26:00.942Z,22.80
2023-07-22T02:28:27.902Z,22.70
2023-07-22T02:30:55.206Z,22.50
2023-07-22T02:33:23.008Z,22.50
2023-07-22T02:35:50.498Z,22.60
2023-07-22T02:38:17.443Z,22.60
2023-07-22T02:40:44.629Z,22.60
2023-07-22T02:43:11.525Z,22.60
2023-07-22T02:45:38.754Z,22.60
2023-07-22T02:48:06.243Z,22.60
2023-07-22T02:50:33.185Z,22.70
2023-07-22T02:53:00.221Z,22.60
2023-07-22T02:55:27.321Z,22.70
2023-07-22T02:57:54.194Z,22.70
2023-07-22T03:00:24.843Z,22.80
2023-07-22T03:02:54.081Z,22.80
2023-07-22T03:05:22.368Z,22.70
2023-07-22T03:07:49.404Z,22.60
2023-07-22T03:10:16.594Z,22.50
2023-07-22T03:12:43.473Z,22.50
2023-07-22T03:15:10.900Z,22.60
2023-07-22T03:17:38.431Z,22.50
2023-07-22T03:20:15.416Z,22.60
2023-07-22T03:22:42.915Z,22.50
2023-07-22T03:25:14.148Z,22.50
2023-07-22T03:27:41.410Z,22.50
2023-07-22T03:30:09.490Z,22.60
2023-07-22T03:32:36.389Z,22.50
2023-07-22T03:35:04.371Z,22.60
2023-07-22T03:37:31.397Z,22.40
2023-07-22T03:39:58.336Z,22.30
2023-07-22T03:42:25.255Z,22.40
2023-07-22T03:44:52.510Z,22.30
2023-07-22T03:47:20.777Z,22.30
2023-07-22T03:49:47.737Z,22.30
2023-07-22T03:52:15.558Z,22.30
2023-07-22T03:54:42.533Z,22.30
2023-07-22T03:57:09.435Z,22.40
2023-07-22T03:59:36.644Z,22.40
2023-07-22T04:02:04.044Z,22.50
2023-07-22T04:04:30.926Z,22.40
2023-07-22T04:06:57.833Z,22.40
2023-07-22T04:09:24.649Z,22.40
2023-07-22T04:11:51.465Z,22.50
2023-07-22T04:14:18.445Z,22.60
2023-07-22T04:16:45.296Z,22.70
2023-07-22T04:19:12.117Z,22.70
2023-07-22T04:21:39.011Z,22.80
2023-07-22T04:24:06.266Z,22.80
2023-07-22T04:26:33.178Z,22.80
2023-07-22T04:29:01.306Z,22.70
2023-07-22T04:31:28.377Z,22.70
2023-07-22T04:33:55.306Z,22.50
2023-07-22T04:36:22.190Z,22.40
2023-07-22T04:38:49.238Z,22.30
2023-07-22T04:41:16.126Z,22.30
2023-07-22T04:43:43.094Z,22.30
2023-07-22T04:46:10.030Z,22.20
2023-07-22T04:48:38.090Z,22.20
2023-07-22T04:51:05.060Z,22.20
2023-07-22T04:53:32.122Z,22.40
2023-07-22T04:55:58.930Z,22.50
2023-07-22T04:58:26.033Z,22.50
2023-07-22T05:00:52.914Z,22.60
2023-07-22T05:03:20.077Z,22.70
2023-07-22T05:05:47.568Z,22.80
2023-07-22T05:08:14.428Z,22.80
2023-07-22T05:10:41.504Z,22.90
2023-07-22T05:13:08.391Z,23.00
2023-07-22T05:15:35.460Z,23.00
2023-07-22T05:18:02.451Z,23.10
2023-07-22T05:20:29.383Z,23.00
2023-07-22T05:22:56.631Z,23.10
2023-07-22T05:25:23.457Z,23.10
2023-07-22T05:27:51.012Z,23.20
2023-07-22T05:30:32.956Z,23.20
2023-07-22T05:33:01.653Z,23.30
2023-07-22T05:35:28.598Z,23.30
2023-07-22T05:37:55.424Z,23.40
2023-07-22T05:40:22.516Z,23.50
2023-07-22T05:42:49.369Z,23.60
2023-07-22T05:45:17.621Z,23.60
2023-07-22T05:47:44.669Z,23.70
2023-07-22T05:50:11.628Z,23.80
2023-07-22T05:52:38.831Z,23.80
2023-07-22T05:55:06.000Z,23.80
2023-07-22T05:57:32.823Z,23.80
2023-07-22T06:00:08.268Z,23.90
2023-07-22T06:02:36.445Z,24.00
2023-07-22T06:05:03.914Z,24.10
2023-07-22T06:07:30.816Z,24.10
2023-07-22T06:09:57.733Z,24.20
2023-07-22T06:14:56.385Z,24.40
2023-07-22T06:17:23.275Z,24.60
2023-07-22T06:19:50.090Z,24.60
2023-07-22T06:22:16.909Z,24.70
2023-07-22T06:24:43.962Z,24.60
2023-07-22T06:27:10.967Z,24.60
2023-07-22T06:29:37.798Z,24.80
2023-07-22T06:32:05.467Z,24.90
2023-07-22T06:34:32.381Z,24.80
2023-07-22T06:36:59.242Z,24.90
2023-07-22T06:39:26.136Z,25.00
2023-07-22T06:41:52.954Z,25.00
2023-07-22T06:44:19.756Z,25.00
2023-07-22T06:46:47.525Z,24.90
2023-07-22T06:49:14.399Z,24.90
2023-07-22T06:51:41.248Z,24.80
2023-07-22T06:54:08.122Z,24.90
2023-07-22T06:56:34.994Z,24.90
2023-07-22T06:59:01.907Z,24.90
2023-07-22T07:01:29.102Z,25.00
2023-07-22T07:03:56.147Z,25.00
2023-07-22T07:06:22.963Z,25.20
2023-07-22T07:08:50.177Z,25.30
2023-07-22T07:11:17.073Z,25.40
2023-07-22T07:13:44.042Z,25.60
2023-07-22T07:16:27.895Z,25.70
2023-07-22T07:18:56.601Z,25.90
2023-07-22T07:21:23.996Z,26.00
2023-07-22T07:23:52.414Z,26.10
2023-07-22T07:26:21.177Z,26.30
2023-07-22T07:28:52.190Z,26.40
2023-07-22T07:31:19.521Z,26.50
2023-07-22T07:33:46.519Z,26.60
2023-07-22T07:36:13.399Z,26.60
2023-07-22T07:38:40.321Z,26.60
2023-07-22T07:41:12.709Z,26.70
2023-07-22T07:43:41.357Z,26.70
2023-07-22T07:46:15.596Z,26.90
2023-07-22T07:48:42.634Z,27.10
2023-07-22T07:51:09.540Z,27.20
2023-07-22T07:53:36.378Z,27.30
2023-07-22T07:56:03.343Z,27.30
2023-07-22T07:58:30.206Z,26.90
2023-07-22T08:00:57.047Z,26.70
2023-07-22T08:03:24.658Z,26.50
2023-07-22T08:05:51.968Z,26.30
2023-07-22T08:08:18.944Z,26.10
2023-07-22T08:10:45.954Z,25.90
2023-07-22T08:13:15.166Z,25.70
2023-07-22T08:15:42.987Z,25.70
2023-07-22T08:18:09.973Z,25.60
2023-07-22T08:20:36.842Z,25.60
2023-07-22T08:23:03.613Z,25.40
2023-07-22T08:25:30.452Z,25.40
2023-07-22T08:27:57.286Z,25.40
2023-07-22T08:30:24.131Z,25.30
2023-07-22T08:32:51.025Z,25.10
2023-07-22T08:35:18.886Z,25.20
2023-07-22T08:37:47.992Z,25.10
2023-07-22T08:40:14.995Z,25.00
2023-07-22T08:42:42.902Z,24.70
2023-07-22T08:45:11.898Z,24.50
2023-07-22T08:47:46.280Z,24.40
2023-07-22T08:50:17.601Z,24.60
2023-07-22T08:52:45.275Z,24.50
2023-07-22T08:55:12.452Z,24.40
2023-07-22T08:57:40.239Z,24.30
2023-07-22T09:00:08.107Z,24.40
2023-07-22T09:02:35.887Z,24.40
2023-07-22T09:05:03.646Z,24.50
2023-07-22T09:07:30.598Z,24.60
2023-07-22T09:09:59.448Z,24.70
2023-07-22T09:12:26.747Z,24.70
2023-07-22T09:14:54.393Z,24.40
2023-07-22T09:17:21.189Z,24.10
2023-07-22T09:19:53.603Z,24.40
2023-07-22T09:22:26.039Z,25.00
2023-07-22T09:24:53.965Z,25.50
2023-07-22T09:27:37.539Z,25.80
2023-07-22T09:30:20.827Z,26.00
2023-07-22T09:32:48.115Z,26.20
2023-07-22T09:35:15.039Z,26.20
2023-07-22T09:37:41.975Z,26.30
2023-07-22T09:40:20.323Z,26.50
2023-07-22T09:42:55.426Z,26.50
2023-07-22T09:45:26.890Z,26.60
2023-07-22T09:47:55.467Z,26.70
2023-07-22T09:50:24.422Z,26.50
2023-07-22T09:52:56.624Z,27.20
2023-07-22T09:55:25.777Z,27.00
2023-07-22T09:57:55.588Z,27.20
2023-07-22T10:00:24.304Z,27.10
2023-07-22T10:02:52.078Z,27.20
2023-07-22T10:05:20.829Z,27.30
2023-07-22T10:07:49.119Z,27.40
2023-07-22T10:10:22.207Z,27.50
2023-07-22T10:12:49.103Z,27.50
2023-07-22T10:15:17.543Z,27.60
2023-07-22T10:17:46.048Z,27.70
2023-07-22T10:20:17.691Z,27.70
2023-07-22T10:22:45.694Z,28.00
2023-07-22T10:25:20.268Z,28.00
2023-07-22T10:27:52.683Z,28.30
2023-07-22T10:30:19.735Z,28.40
2023-07-22T10:32:48.921Z,28.70
2023-07-22T10:35:31.080Z,28.60
2023-07-22T10:38:18.168Z,28.80
2023-07-22T10:40:56.035Z,28.80
2023-07-22T10:43:28.190Z,28.80
2023-07-22T10:45:57.341Z,29.00
2023-07-22T10:48:29.258Z,29.10
2023-07-22T10:51:05.485Z,29.10
2023-07-22T10:53:32.475Z,29.30
2023-07-22T10:56:14.383Z,29.30
2023-07-22T10:58:49.585Z,29.50
2023-07-22T11:01:35.740Z,29.70
2023-07-22T11:04:11.260Z,29.70
2023-07-22T11:06:41.149Z,29.60
2023-07-22T11:09:07.998Z,29.80
2023-07-22T11:11:46.372Z,29.80
2023-07-22T11:14:18.206Z,29.90
2023-07-22T11:16:46.968Z,30.10
2023-07-22T11:19:19.345Z,30.30
2023-07-22T11:21:49.119Z,30.40
2023-07-22T11:24:17.278Z,30.40
2023-07-22T11:26:46.688Z,30.50
2023-07-22T11:29:15.004Z,30.60
2023-07-22T11:31:46.778Z,30.60
2023-07-22T11:34:15.065Z,30.70
2023-07-22T11:36:42.666Z,30.90
2023-07-22T11:39:14.527Z,31.10
2023-07-22T11:41:44.819Z,31.30
2023-07-22T11:44:16.510Z,31.40
2023-07-22T11:47:03.176Z,31.30
2023-07-22T11:49:32.620Z,31.40
2023-07-22T11:52:19.688Z,31.60
2023-07-22T11:54:48.139Z,31.60
2023-07-22T11:57:23.112Z,31.60
2023-07-22T11:59:55.373Z,31.60
2023-07-22T12:02:27.483Z,31.60
2023-07-22T12:04:55.084Z,31.70
2023-07-22T12:07:33.117Z,31.90
2023-07-22T12:10:02.092Z,31.90
2023-07-22T12:12:35.044Z,32.10
2023-07-22T12:15:06.004Z,32.20
2023-07-22T12:17:48.911Z,32.10
2023-07-22T12:20:17.028Z,32.40
2023-07-22T12:22:46.525Z,32.60
2023-07-22T12:25:13.626Z,32.80
2023-07-22T12:27:40.372Z,32.80
2023-07-22T12:30:08.509Z,32.50
2023-07-22T12:32:35.547Z,32.70
2023-07-22T12:35:04.106Z,32.80
2023-07-22T12:37:31.528Z,32.90
2023-07-22T12:39:58.593Z,32.90
2023-07-22T12:42:25.366Z,32.90
2023-07-22T12:44:52.905Z,33.10
2023-07-22T12:47:19.875Z,33.20
2023-07-22T12:49:46.957Z,33.20
2023-07-22T12:52:14.488Z,33.40
2023-07-22T12:54:42.095Z,33.60
2023-07-22T12:57:09.012Z,33.50
2023-07-22T12:59:35.715Z,33.60
2023-07-22T13:02:02.503Z,33.60
2023-07-22T13:04:29.290Z,33.70
2023-07-22T13:06:56.069Z,33.90
2023-07-22T13:09:22.851Z,34.00
2023-07-22T13:11:49.720Z,34.30
2023-07-22T13:14:18.271Z,34.20
2023-07-22T13:16:45.168Z,34.30
2023-07-22T13:19:11.966Z,34.50
2023-07-22T13:21:38.690Z,34.50
2023-07-22T13:24:06.077Z,34.60
2023-07-22T13:26:33.052Z,34.60
2023-07-22T13:28:59.803Z,34.70
2023-07-22T13:31:26.977Z,34.70
2023-07-22T13:33:53.947Z,34.90
2023-07-22T13:36:20.791Z,35.00
2023-07-22T13:38:48.054Z,35.00
2023-07-22T13:41:14.800Z,35.10
2023-07-22T13:43:41.578Z,35.30
2023-07-22T13:46:08.392Z,35.40
2023-07-22T13:48:35.387Z,35.50
2023-07-22T13:51:02.180Z,35.60
2023-07-22T13:53:29.028Z,35.60
2023-07-22T13:55:55.825Z,35.60
2023-07-22T13:58:22.779Z,35.90
2023-07-22T14:00:49.817Z,36.00
2023-07-22T14:03:16.587Z,35.90
2023-07-22T14:05:43.349Z,36.30
2023-07-22T14:08:10.155Z,36.90
2023-07-22T14:10:37.138Z,37.30
2023-07-22T14:13:03.983Z,36.60
2023-07-22T14:15:31.499Z,36.80
2023-07-22T14:17:58.258Z,37.00
2023-07-22T14:20:25.014Z,37.50
2023-07-22T14:22:51.788Z,37.70
2023-07-22T14:25:20.019Z,37.40
2023-07-22T14:27:46.835Z,37.20
2023-07-22T14:30:13.715Z,37.00
2023-07-22T14:32:40.599Z,37.10
2023-07-22T14:35:07.698Z,37.30
2023-07-22T14:37:34.533Z,37.30
2023-07-22T14:40:01.359Z,37.60
2023-07-22T14:42:28.124Z,37.40
2023-07-22T14:44:54.921Z,37.50
2023-07-22T14:47:21.755Z,37.60
2023-07-22T14:49:49.719Z,37.40
2023-07-22T14:52:19.068Z,37.20
2023-07-22T14:54:45.913Z,37.10
2023-07-22T14:57:12.674Z,37.00
2023-07-22T14:59:39.719Z,36.90
2023-07-22T15:02:06.882Z,36.90
2023-07-22T15:04:34.088Z,36.90
2023-07-22T15:07:00.999Z,36.80
2023-07-22T15:09:27.719Z,36.70
2023-07-22T15:11:54.454Z,36.50
2023-07-22T15:14:21.328Z,36.40
2023-07-22T15:16:48.105Z,36.20
2023-07-22T15:19:14.973Z,35.90
2023-07-22T15:21:41.752Z,35.80
2023-07-22T15:24:08.548Z,35.70
2023-07-22T15:26:35.317Z,35.70
2023-07-22T15:29:02.141Z,35.70
2023-07-22T15:31:29.165Z,35.40
2023-07-22T15:33:56.369Z,35.30
2023-07-22T15:36:23.199Z,35.20
2023-07-22T15:38:49.955Z,35.00
2023-07-22T15:41:16.902Z,34.80
2023-07-22T15:43:43.718Z,34.60
2023-07-22T15:46:10.577Z,34.60
2023-07-22T15:48:37.347Z,34.50
2023-07-22T15:51:04.676Z,34.50
2023-07-22T15:53:31.472Z,34.20
2023-07-22T15:55:58.501Z,34.20
2023-07-22T15:58:25.473Z,34.10
2023-07-22T16:00:52.707Z,34.10
2023-07-22T16:03:19.482Z,34.00
2023-07-22T16:05:46.639Z,33.90
2023-07-22T16:08:13.418Z,33.80
2023-07-22T16:10:40.253Z,33.70
2023-07-22T16:13:07.519Z,33.50
2023-07-22T16:15:34.264Z,33.60
2023-07-22T16:18:01.725Z,33.60
2023-07-22T16:20:30.193Z,33.70
2023-07-22T16:22:56.960Z,33.50
2023-07-22T16:25:23.719Z,33.40
2023-07-22T16:27:50.741Z,33.20
2023-07-22T16:30:17.440Z,33.20
2023-07-22T16:32:44.332Z,33.20
2023-07-22T16:35:11.384Z,33.10
2023-07-22T16:37:38.503Z,33.00
2023-07-22T16:40:05.846Z,32.90
2023-07-22T16:42:32.694Z,33.00
2023-07-22T16:44:59.477Z,33.00
2023-07-22T16:47:26.174Z,33.00
2023-07-22T16:49:53.586Z,33.00
2023-07-22T16:52:20.872Z,33.00
2023-07-22T16:54:47.746Z,32.90
2023-07-22T16:57:14.540Z,32.80
2023-07-22T16:59:41.354Z,32.60
2023-07-22T17:02:08.051Z,32.50
2023-07-22T17:04:35.103Z,32.40
2023-07-22T17:07:02.832Z,32.30
2023-07-22T17:09:30.072Z,32.20
2023-07-22T17:11:56.823Z,32.20
2023-07-22T17:14:23.591Z,32.10
2023-07-22T17:16:50.336Z,32.00
2023-07-22T17:19:19.345Z,31.90
2023-07-22T17:21:46.446Z,31.70
2023-07-22T17:24:13.211Z,31.60
2023-07-22T17:26:40.137Z,31.60
2023-07-22T17:29:07.414Z,31.50
2023-07-22T17:31:34.228Z,31.40
2023-07-22T17:34:01.278Z,31.40
2023-07-22T17:36:28.707Z,31.20
2023-07-22T17:38:55.416Z,31.00
2023-07-22T17:41:22.199Z,30.90
2023-07-22T17:43:49.282Z,30.60
2023-07-22T17:46:16.052Z,30.50
2023-07-22T17:48:43.000Z,30.50
2023-07-22T17:51:10.051Z,30.50
2023-07-22T17:53:36.960Z,30.30
2023-07-22T17:56:03.899Z,30.30
2023-07-22T17:58:30.628Z,30.20
2023-07-22T18:00:57.425Z,30.30
2023-07-22T18:03:24.245Z,30.20
2023-07-22T18:05:51.001Z,30.00
2023-07-22T18:08:18.319Z,29.90
2023-07-22T18:10:46.091Z,29.80
2023-07-22T18:13:12.983Z,29.60
2023-07-22T18:15:39.777Z,29.50
2023-07-22T18:18:08.066Z,29.60
2023-07-22T18:20:35.795Z,29.60
2023-07-22T18:23:02.984Z,29.50
2023-07-22T18:25:29.883Z,29.40
2023-07-22T18:27:56.720Z,29.30
2023-07-22T18:30:23.522Z,29.20
2023-07-22T18:32:50.536Z,29.10
2023-07-22T18:35:17.315Z,29.20
2023-07-22T18:37:44.083Z,29.20
2023-07-22T18:40:11.270Z,29.10
2023-07-22T18:42:38.009Z,29.00
2023-07-22T18:45:05.838Z,29.00
2023-07-22T18:47:32.619Z,28.80
2023-07-22T18:49:59.422Z,28.80
2023-07-22T18:52:26.898Z,28.70
2023-07-22T18:54:53.940Z,28.60
2023-07-22T18:57:21.774Z,28.70
2023-07-22T18:59:49.454Z,28.60
2023-07-22T19:02:16.457Z,28.60
2023-07-22T19:04:43.309Z,28.50
2023-07-22T19:07:10.189Z,28.50
2023-07-22T19:09:36.939Z,28.40
2023-07-22T19:12:03.944Z,28.40
2023-07-22T19:14:30.754Z,28.40
2023-07-22T19:16:59.136Z,28.40
2023-07-22T19:19:26.284Z,28.30
2023-07-22T19:21:54.925Z,28.30
2023-07-22T19:24:22.127Z,28.30
2023-07-22T19:26:49.123Z,28.30
2023-07-22T19:29:15.861Z,28.20
2023-07-22T19:31:42.656Z,28.20
2023-07-22T19:34:11.528Z,28.10
2023-07-22T19:36:38.314Z,28.20
2023-07-22T19:39:06.060Z,28.20
2023-07-22T19:41:32.814Z,28.10
2023-07-22T19:43:59.618Z,28.00
2023-07-22T19:46:26.478Z,27.90
2023-07-22T19:48:53.173Z,27.90
2023-07-22T19:51:20.679Z,27.90
2023-07-22T19:53:47.592Z,27.80
2023-07-22T19:56:15.027Z,27.80
2023-07-22T19:58:41.815Z,27.80
2023-07-22T20:01:09.050Z,27.80
2023-07-22T20:03:40.181Z,27.80
2023-07-22T20:06:08.782Z,27.80
2023-07-22T20:08:40.802Z,27.80
2023-07-22T20:11:08.015Z,27.90
2023-07-22T20:13:35.879Z,27.80
2023-07-22T20:16:03.591Z,27.80
2023-07-22T20:18:30.477Z,27.70
2023-07-22T20:20:58.097Z,27.70
2023-07-22T20:23:25.168Z,27.70
2023-07-22T20:25:53.318Z,27.70
2023-07-22T20:28:20.145Z,27.70
2023-07-22T20:30:49.366Z,27.70
2023-07-22T20:33:16.145Z,27.60
2023-07-22T20:35:43.102Z,27.60
2023-07-22T20:38:09.902Z,27.60
2023-07-22T20:40:36.693Z,27.60
2023-07-22T20:43:03.463Z,27.60
2023-07-22T20:45:30.502Z,27.60
2023-07-22T20:47:57.218Z,27.70
2023-07-22T20:50:23.971Z,27.60
2023-07-22T20:52:50.819Z,27.60
2023-07-22T20:55:17.626Z,27.60
2023-07-22T20:57:44.373Z,27.70
2023-07-22T21:00:11.904Z,27.40
2023-07-22T21:02:38.802Z,27.40
2023-07-22T21:05:06.019Z,27.40
2023-07-22T21:07:32.954Z,27.40
2023-07-22T21:09:59.831Z,27.30
2023-07-22T21:12:26.624Z,27.30
2023-07-22T21:14:53.601Z,27.20
2023-07-22T21:17:20.413Z,27.30
2023-07-22T21:19:47.198Z,27.20
2023-07-22T21:22:13.943Z,27.20
2023-07-22T21:24:40.894Z,27.20
2023-07-22T21:27:08.255Z,27.00
2023-07-22T21:29:35.612Z,27.00
2023-07-22T21:32:02.528Z,27.00
2023-07-22T21:34:30.077Z,27.00
2023-07-22T21:36:56.827Z,27.10
2023-07-22T21:39:24.959Z,27.10
2023-07-22T21:41:51.783Z,27.10
2023-07-22T21:44:19.719Z,27.10
2023-07-22T21:46:46.639Z,27.00
2023-07-22T21:49:13.479Z,27.00
2023-07-22T21:51:42.878Z,26.90
2023-07-22T21:54:09.830Z,27.00
2023-07-22T21:56:36.655Z,27.00
2023-07-22T21:59:03.809Z,27.00
2023-07-22T22:01:30.748Z,27.00
2023-07-22T22:03:57.876Z,27.10
2023-07-22T22:06:24.710Z,27.00
2023-07-22T22:08:52.227Z,27.00
2023-07-22T22:11:19.030Z,27.00
2023-07-22T22:13:45.888Z,27.00
2023-07-22T22:16:12.682Z,26.90
2023-07-22T22:18:39.476Z,27.00
2023-07-22T22:21:06.667Z,27.00
2023-07-22T22:23:33.374Z,27.00
2023-07-22T22:26:00.109Z,27.00
2023-07-22T22:28:27.082Z,26.90
2023-07-22T22:30:58.636Z,26.90
2023-07-22T22:33:25.446Z,26.80
2023-07-22T22:35:52.351Z,26.70
2023-07-22T22:38:19.072Z,26.70
2023-07-22T22:40:45.874Z,26.70
2023-07-22T22:43:12.662Z,26.60
2023-07-22T22:45:39.493Z,26.60
2023-07-22T22:48:06.806Z,26.60
2023-07-22T22:50:33.727Z,26.60
2023-07-22T22:53:00.402Z,26.60
2023-07-22T22:55:27.153Z,26.60
2023-07-22T22:57:53.954Z,26.50
2023-07-22T23:00:21.225Z,26.50
2023-07-22T23:02:48.266Z,26.40
2023-07-22T23:05:15.243Z,26.40
2023-07-22T23:07:42.125Z,26.50
2023-07-22T23:10:09.331Z,26.40
2023-07-22T23:12:40.181Z,26.40
2023-07-22T23:15:09.872Z,26.50
2023-07-22T23:17:39.879Z,26.60
2023-07-22T23:20:07.626Z,26.50
2023-07-22T23:22:34.437Z,26.50
2023-07-22T23:25:01.663Z,26.50
2023-07-22T23:27:31.789Z,26.50
2023-07-22T23:29:58.743Z,26.40
2023-07-22T23:32:25.684Z,26.40
2023-07-22T23:34:53.124Z,26.30
2023-07-22T23:37:19.892Z,26.20
2023-07-22T23:39:46.674Z,26.10
2023-07-22T23:42:13.461Z,26.10
2023-07-22T23:44:40.636Z,26.10
2023-07-22T23:47:07.593Z,26.10
2023-07-22T23:49:34.444Z,26.10
2023-07-22T23:52:01.258Z,26.00
2023-07-22T23:54:29.300Z,25.90
2023-07-22T23:56:56.460Z,26.00
2023-07-22T23:59:23.237Z,26.10
